createdAt,value
2019-01-24T00:00:41.768Z,13.47
2019-01-24T00:03:10.804Z,14.07
2019-01-24T00:05:39.844Z,14.70
2019-01-24T00:08:08.936Z,14.20
2019-01-24T00:10:38.037Z,12.90
2019-01-24T00:13:07.108Z,13.63
2019-01-24T00:15:36.158Z,13.90
2019-01-24T00:18:05.501Z,14.73
2019-01-24T00:20:34.570Z,13.33
2019-01-24T00:23:03.765Z,11.93
2019-01-24T00:25:32.886Z,14.37
2019-01-24T00:28:01.938Z,13.67
2019-01-24T00:30:30.989Z,14.13
2019-01-24T00:33:00.096Z,13.33
2019-01-24T00:35:29.137Z,12.60
2019-01-24T00:37:58.209Z,13.33
2019-01-24T00:40:27.253Z,12.70
2019-01-24T00:42:56.293Z,13.10
2019-01-24T00:45:25.383Z,13.60
2019-01-24T00:47:54.422Z,12.97
2019-01-24T00:50:23.473Z,13.27
2019-01-24T00:52:52.525Z,12.47
2019-01-24T00:55:21.575Z,13.73
2019-01-24T00:57:50.104Z,12.70
2019-01-24T01:00:20.534Z,12.60
2019-01-24T01:02:49.219Z,11.83
2019-01-24T01:05:17.836Z,12.53
2019-01-24T01:07:46.485Z,13.83
2019-01-24T01:10:15.218Z,13.13
2019-01-24T01:12:43.758Z,13.60
2019-01-24T01:15:13.480Z,13.33
2019-01-24T01:17:42.022Z,13.33
2019-01-24T01:20:12.066Z,11.83
2019-01-24T01:22:40.580Z,11.97
2019-01-24T01:25:09.928Z,12.80
2019-01-24T01:27:38.450Z,12.80
2019-01-24T01:30:08.317Z,13.30
2019-01-24T01:32:36.870Z,12.57
2019-01-24T01:35:05.668Z,12.43
2019-01-24T01:37:34.236Z,12.57
2019-01-24T01:40:02.759Z,12.37
2019-01-24T01:42:31.622Z,13.63
2019-01-24T01:45:00.194Z,13.17
2019-01-24T01:47:28.763Z,12.73
2019-01-24T01:49:57.375Z,13.60
2019-01-24T01:52:25.900Z,14.00
2019-01-24T01:54:54.468Z,12.93
2019-01-24T01:57:22.985Z,13.53
2019-01-24T01:59:51.517Z,13.90
2019-01-24T02:02:20.081Z,13.67
2019-01-24T02:04:48.600Z,13.33
2019-01-24T02:07:17.192Z,13.33
2019-01-24T02:09:45.752Z,11.93
2019-01-24T02:12:14.288Z,12.23
2019-01-24T02:14:42.811Z,13.83
2019-01-24T02:17:11.397Z,13.67
2019-01-24T02:19:39.935Z,13.10
2019-01-24T02:22:08.456Z,14.40
2019-01-24T02:24:37.004Z,13.47
2019-01-24T02:27:05.537Z,13.87
2019-01-24T02:29:34.084Z,12.80
2019-01-24T02:32:02.634Z,13.67
2019-01-24T02:34:31.176Z,14.03
2019-01-24T02:36:59.702Z,13.27
2019-01-24T02:39:28.399Z,14.17
2019-01-24T02:41:56.937Z,13.00
2019-01-24T02:44:25.463Z,14.40
2019-01-24T02:46:53.998Z,12.43
2019-01-24T02:49:22.528Z,12.77
2019-01-24T02:51:51.078Z,14.60
2019-01-24T02:54:19.621Z,12.83
2019-01-24T02:56:48.157Z,12.23
2019-01-24T02:59:16.689Z,12.97
2019-01-24T03:01:45.239Z,12.77
2019-01-24T03:04:13.766Z,12.67
2019-01-24T03:06:42.330Z,12.90
2019-01-24T03:09:10.869Z,13.97
2019-01-24T03:11:39.399Z,12.60
2019-01-24T03:14:08.212Z,14.57
2019-01-24T03:16:36.742Z,13.50
2019-01-24T03:19:05.261Z,12.60
2019-01-24T03:21:33.842Z,14.13
2019-01-24T03:24:02.384Z,13.90
2019-01-24T03:26:30.906Z,13.37
2019-01-24T03:28:59.469Z,13.37
2019-01-24T03:31:28.010Z,13.50
2019-01-24T03:33:56.578Z,12.83
2019-01-24T03:36:25.108Z,14.13
2019-01-24T03:38:53.617Z,13.50
2019-01-24T03:41:22.173Z,13.73
2019-01-24T03:43:50.693Z,14.17
2019-01-24T03:46:19.213Z,15.43
2019-01-24T03:48:47.785Z,14.47
2019-01-24T03:51:16.330Z,14.23
2019-01-24T03:53:44.848Z,14.60
2019-01-24T03:56:13.393Z,15.43
2019-01-24T03:58:42.113Z,15.37
2019-01-24T04:01:10.889Z,14.27
2019-01-24T04:03:39.420Z,13.73
2019-01-24T04:06:07.981Z,14.27
2019-01-24T04:08:36.837Z,14.83
2019-01-24T04:11:05.427Z,14.23
2019-01-24T04:13:33.940Z,13.43
2019-01-24T04:16:02.497Z,13.83
2019-01-24T04:18:31.012Z,14.07
2019-01-24T04:20:59.536Z,13.10
2019-01-24T04:23:28.101Z,13.83
2019-01-24T04:25:56.645Z,13.23
2019-01-24T04:28:25.509Z,12.97
2019-01-24T04:30:54.044Z,13.87
2019-01-24T04:33:22.570Z,13.67
2019-01-24T04:35:51.116Z,13.23
2019-01-24T04:38:19.645Z,14.30
2019-01-24T04:40:48.192Z,14.00
2019-01-24T04:43:16.713Z,14.20
2019-01-24T04:45:45.248Z,14.70
2019-01-24T04:48:13.833Z,13.97
2019-01-24T04:50:42.385Z,14.13
2019-01-24T04:53:10.925Z,14.83
2019-01-24T04:55:39.470Z,14.93
2019-01-24T04:58:07.988Z,13.67
2019-01-24T05:00:36.561Z,15.40
2019-01-24T05:03:05.115Z,13.93
2019-01-24T05:05:33.644Z,15.10
2019-01-24T05:08:02.189Z,14.17
2019-01-24T05:10:30.757Z,14.17
2019-01-24T05:12:59.280Z,15.20
2019-01-24T05:15:27.820Z,14.90
2019-01-24T05:17:56.357Z,14.53
2019-01-24T05:20:24.893Z,14.23
2019-01-24T05:22:53.467Z,13.03
2019-01-24T05:25:22.031Z,15.03
2019-01-24T05:27:50.584Z,14.87
2019-01-24T05:30:26.333Z,14.10
2019-01-24T05:32:55.453Z,12.40
2019-01-24T05:35:24.160Z,12.77
2019-01-24T05:37:52.720Z,13.07
2019-01-24T05:40:21.281Z,13.80
2019-01-24T05:42:49.821Z,12.40
2019-01-24T05:45:18.389Z,12.37
2019-01-24T05:47:46.930Z,12.13
2019-01-24T05:50:15.590Z,13.40
2019-01-24T05:52:44.113Z,12.30
2019-01-24T05:55:12.793Z,13.20
2019-01-24T05:57:41.320Z,12.10
2019-01-24T06:00:11.685Z,11.97
2019-01-24T06:02:40.269Z,11.93
2019-01-24T06:05:09.368Z,13.43
2019-01-24T06:07:37.947Z,11.67
2019-01-24T06:10:07.816Z,12.47
2019-01-24T06:12:36.418Z,13.27
2019-01-24T06:15:05.750Z,11.03
2019-01-24T06:17:34.289Z,11.97
2019-01-24T06:20:02.816Z,11.43
2019-01-24T06:22:31.645Z,12.40
2019-01-24T06:25:00.202Z,12.17
2019-01-24T06:27:28.734Z,11.23
2019-01-24T06:29:57.583Z,11.33
2019-01-24T06:32:26.164Z,9.93
2019-01-24T06:34:54.772Z,10.83
2019-01-24T06:37:23.321Z,11.90
2019-01-24T06:39:51.874Z,10.90
2019-01-24T06:42:20.384Z,10.80
2019-01-24T06:44:48.916Z,10.63
2019-01-24T06:47:17.587Z,10.00
2019-01-24T06:49:46.132Z,11.23
2019-01-24T06:52:14.699Z,11.13
2019-01-24T06:54:43.236Z,10.63
2019-01-24T06:57:11.776Z,10.00
2019-01-24T06:59:40.373Z,10.63
2019-01-24T07:02:09.068Z,9.70
2019-01-24T07:04:37.599Z,10.60
2019-01-24T07:07:06.149Z,11.33
2019-01-24T07:09:34.709Z,10.53
2019-01-24T07:12:03.244Z,10.33
2019-01-24T07:14:31.832Z,10.00
2019-01-24T07:17:00.395Z,10.47
2019-01-24T07:19:28.913Z,11.60
2019-01-24T07:21:57.464Z,10.47
2019-01-24T07:24:25.988Z,10.37
2019-01-24T07:26:54.536Z,10.53
2019-01-24T07:29:23.162Z,10.83
2019-01-24T07:31:51.688Z,10.30
2019-01-24T07:34:20.233Z,11.20
2019-01-24T07:36:48.759Z,11.07
2019-01-24T07:39:17.317Z,11.10
2019-01-24T07:41:45.861Z,10.87
2019-01-24T07:44:14.456Z,10.93
2019-01-24T07:46:42.988Z,11.00
2019-01-24T07:49:11.546Z,10.87
2019-01-24T07:51:40.073Z,10.17
2019-01-24T07:54:08.592Z,10.07
2019-01-24T07:56:37.212Z,10.03
2019-01-24T07:59:06.077Z,9.60
2019-01-24T08:01:34.669Z,10.27
2019-01-24T08:04:03.244Z,9.20
2019-01-24T08:06:31.793Z,9.97
2019-01-24T08:09:00.380Z,10.23
2019-01-24T08:11:28.916Z,10.63
2019-01-24T08:13:57.497Z,10.17
2019-01-24T08:16:27.403Z,11.67
2019-01-24T08:18:56.180Z,11.23
2019-01-24T08:21:24.733Z,10.73
2019-01-24T08:23:53.277Z,11.47
2019-01-24T08:26:21.881Z,11.00
2019-01-24T08:28:50.457Z,11.47
2019-01-24T08:31:19.053Z,10.10
2019-01-24T08:33:47.626Z,10.97
2019-01-24T08:36:16.148Z,10.83
2019-01-24T08:38:44.760Z,10.93
2019-01-24T08:41:13.316Z,10.93
2019-01-24T08:43:41.965Z,10.33
2019-01-24T08:46:10.491Z,10.90
2019-01-24T08:48:39.164Z,10.10
2019-01-24T08:51:07.699Z,10.77
2019-01-24T08:53:36.230Z,11.17
2019-01-24T08:56:04.780Z,11.53
2019-01-24T08:58:33.341Z,12.00
2019-01-24T09:01:01.878Z,11.23
2019-01-24T09:03:30.408Z,11.47
2019-01-24T09:05:59.217Z,11.30
2019-01-24T09:08:27.750Z,10.63
2019-01-24T09:10:56.277Z,12.17
2019-01-24T09:13:24.812Z,11.57
2019-01-24T09:15:53.463Z,10.63
2019-01-24T09:18:22.041Z,10.10
2019-01-24T09:20:50.577Z,10.30
2019-01-24T09:23:19.141Z,10.93
2019-01-24T09:25:48.012Z,12.43
2019-01-24T09:28:16.560Z,11.57
2019-01-24T09:30:45.101Z,11.13
2019-01-24T09:33:13.658Z,9.20
2019-01-24T09:35:42.234Z,11.30
2019-01-24T09:38:10.758Z,11.40
2019-01-24T09:40:39.312Z,11.07
2019-01-24T09:43:07.911Z,10.97
2019-01-24T09:45:36.453Z,11.13
2019-01-24T09:48:05.677Z,11.80
2019-01-24T09:50:34.227Z,13.07
2019-01-24T09:53:02.853Z,11.60
2019-01-24T09:55:31.385Z,11.77
2019-01-24T09:57:59.913Z,11.97
2019-01-24T10:00:29.468Z,11.47
2019-01-24T10:02:58.024Z,11.73
2019-01-24T10:05:26.666Z,12.40
2019-01-24T10:07:55.203Z,12.10
2019-01-24T10:10:23.896Z,10.87
2019-01-24T10:12:52.784Z,12.47
2019-01-24T10:15:21.702Z,11.50
2019-01-24T10:17:50.242Z,11.63
2019-01-24T10:20:19.451Z,11.40
2019-01-24T10:22:47.972Z,11.17
2019-01-24T10:25:23.301Z,11.83
2019-01-24T10:27:51.916Z,11.03
2019-01-24T10:30:21.489Z,10.70
2019-01-24T10:32:50.340Z,11.87
2019-01-24T10:35:18.868Z,11.60
2019-01-24T10:37:47.561Z,12.43
2019-01-24T10:40:17.677Z,11.37
2019-01-24T10:42:46.302Z,11.13
2019-01-24T10:45:15.444Z,13.33
2019-01-24T10:47:44.027Z,12.33
2019-01-24T10:50:13.205Z,11.07
2019-01-24T10:52:41.750Z,11.87
2019-01-24T10:55:13.687Z,13.77
2019-01-24T10:57:41.468Z,12.67
2019-01-24T11:00:11.950Z,12.80
2019-01-24T11:02:40.502Z,13.40
2019-01-24T11:05:09.706Z,13.47
2019-01-24T11:07:38.275Z,15.07
2019-01-24T11:10:07.064Z,14.73
2019-01-24T11:12:35.600Z,14.33
2019-01-24T11:15:05.257Z,15.07
2019-01-24T11:17:33.781Z,15.53
2019-01-24T11:20:02.361Z,14.33
2019-01-24T11:22:30.901Z,15.03
2019-01-24T11:24:59.424Z,14.43
2019-01-24T11:27:28.077Z,15.17
2019-01-24T11:29:56.624Z,14.83
2019-01-24T11:32:25.245Z,15.77
2019-01-24T11:34:53.805Z,15.30
2019-01-24T11:37:22.412Z,15.40
2019-01-24T11:39:50.941Z,16.20
2019-01-24T11:42:19.611Z,14.50
2019-01-24T11:44:48.159Z,16.33
2019-01-24T11:47:16.705Z,14.93
2019-01-24T11:49:45.297Z,14.83
2019-01-24T11:52:13.848Z,16.63
2019-01-24T11:54:42.425Z,16.03
2019-01-24T11:57:10.989Z,15.37
2019-01-24T11:59:39.854Z,15.93
2019-01-24T12:02:08.412Z,17.27
2019-01-24T12:04:37.084Z,15.30
2019-01-24T12:07:05.632Z,17.60
2019-01-24T12:09:34.278Z,16.03
2019-01-24T12:12:02.889Z,15.83
2019-01-24T12:14:31.608Z,17.00
2019-01-24T12:17:00.124Z,16.80
2019-01-24T12:19:28.682Z,17.23
2019-01-24T12:21:57.270Z,16.53
2019-01-24T12:24:25.816Z,17.10
2019-01-24T12:26:54.396Z,16.90
2019-01-24T12:29:23.011Z,16.50
2019-01-24T12:31:51.536Z,17.80
2019-01-24T12:34:20.099Z,17.17
2019-01-24T12:36:48.631Z,17.27
2019-01-24T12:39:17.279Z,16.47
2019-01-24T12:41:45.845Z,17.03
2019-01-24T12:44:14.414Z,17.30
2019-01-24T12:46:42.998Z,17.17
2019-01-24T12:49:11.541Z,16.63
2019-01-24T12:51:40.101Z,15.67
2019-01-24T12:54:08.654Z,15.47
2019-01-24T12:56:37.222Z,15.57
2019-01-24T12:59:05.974Z,15.73
2019-01-24T13:01:34.505Z,16.17
2019-01-24T13:04:03.121Z,16.03
2019-01-24T13:06:31.672Z,14.50
2019-01-24T13:09:00.212Z,13.80
2019-01-24T13:11:28.742Z,15.53
2019-01-24T13:13:57.690Z,15.37
2019-01-24T13:16:26.225Z,15.80
2019-01-24T13:18:54.825Z,13.43
2019-01-24T13:21:26.565Z,15.40
2019-01-24T13:23:55.141Z,13.33
2019-01-24T13:26:23.697Z,12.53
2019-01-24T13:28:52.347Z,12.43
2019-01-24T13:31:20.971Z,12.77
2019-01-24T13:33:49.548Z,12.43
2019-01-24T13:36:18.097Z,13.80
2019-01-24T13:38:46.646Z,13.23
2019-01-24T13:41:15.193Z,13.80
2019-01-24T13:43:43.832Z,13.53
2019-01-24T13:46:12.380Z,12.57
2019-01-24T13:48:41.398Z,12.80
2019-01-24T13:51:09.971Z,12.37
2019-01-24T13:53:38.526Z,13.20
2019-01-24T13:56:07.057Z,12.93
2019-01-24T13:58:35.605Z,13.47
2019-01-24T14:01:04.757Z,13.27
2019-01-24T14:03:42.280Z,14.07
2019-01-24T14:06:10.469Z,13.00
2019-01-24T14:08:39.081Z,13.77
2019-01-24T14:11:07.710Z,13.90
2019-01-24T14:13:36.253Z,14.07
2019-01-24T14:16:04.809Z,13.33
2019-01-24T14:18:33.462Z,14.57
2019-01-24T14:21:02.301Z,15.40
2019-01-24T14:23:30.837Z,14.23
2019-01-24T14:25:59.372Z,14.20
2019-01-24T14:28:27.939Z,13.60
2019-01-24T14:30:56.556Z,13.47
2019-01-24T14:33:25.105Z,15.57
2019-01-24T14:35:54.024Z,13.50
2019-01-24T14:38:22.640Z,13.33
2019-01-24T14:40:51.184Z,14.37
2019-01-24T14:43:19.757Z,13.63
2019-01-24T14:45:48.300Z,14.60
2019-01-24T14:48:16.927Z,13.20
2019-01-24T14:50:45.597Z,12.77
2019-01-24T14:53:14.142Z,13.27
2019-01-24T14:55:42.701Z,13.27
2019-01-24T14:58:11.228Z,14.33
2019-01-24T15:00:41.488Z,13.83
2019-01-24T15:03:10.023Z,13.80
2019-01-24T15:05:38.546Z,12.63
2019-01-24T15:08:08.654Z,12.97
2019-01-24T15:10:37.185Z,13.50
2019-01-24T15:13:06.294Z,14.20
2019-01-24T15:15:34.821Z,13.33
2019-01-24T15:18:03.377Z,12.70
2019-01-24T15:20:32.168Z,12.07
2019-01-24T15:23:00.752Z,14.07
2019-01-24T15:25:29.268Z,12.90
2019-01-24T15:27:58.165Z,13.60
2019-01-24T15:30:26.699Z,14.23
2019-01-24T15:32:55.229Z,14.30
2019-01-24T15:35:23.770Z,14.33
2019-01-24T15:37:54.688Z,13.83
2019-01-24T15:40:24.216Z,14.80
2019-01-24T15:42:52.781Z,13.87
2019-01-24T15:45:21.412Z,14.60
2019-01-24T15:47:49.977Z,14.17
2019-01-24T15:50:19.091Z,14.47
2019-01-24T15:52:48.089Z,15.00
2019-01-24T15:55:16.628Z,13.87
2019-01-24T15:57:45.173Z,14.17
2019-01-24T16:00:18.207Z,14.07
2019-01-24T16:02:46.760Z,14.27
2019-01-24T16:05:15.292Z,15.57
2019-01-24T16:07:43.849Z,15.03
2019-01-24T16:10:13.058Z,15.50
2019-01-24T16:12:41.580Z,16.00
2019-01-24T16:15:11.673Z,16.07
2019-01-24T16:17:40.233Z,15.73
2019-01-24T16:20:10.553Z,16.53
2019-01-24T16:22:39.231Z,16.17
2019-01-24T16:25:08.252Z,14.93
2019-01-24T16:27:37.085Z,16.90
2019-01-24T16:30:06.805Z,16.73
2019-01-24T16:32:35.381Z,19.37
2019-01-24T16:35:04.860Z,18.47
2019-01-24T16:37:33.460Z,17.23
2019-01-24T16:40:02.134Z,23.10
2019-01-24T16:42:30.709Z,16.80
2019-01-24T16:44:59.229Z,16.43
2019-01-24T16:47:28.129Z,16.60
2019-01-24T16:49:56.731Z,16.07
2019-01-24T16:52:25.256Z,16.10
2019-01-24T16:54:55.793Z,17.17
2019-01-24T16:57:24.377Z,18.60
2019-01-24T16:59:52.252Z,20.67
2019-01-24T17:02:20.833Z,19.50
2019-01-24T17:04:49.405Z,17.43
2019-01-24T17:07:17.982Z,16.73
2019-01-24T17:09:46.514Z,17.93
2019-01-24T17:12:15.105Z,16.33
2019-01-24T17:14:44.061Z,16.57
2019-01-24T17:17:12.624Z,18.70
2019-01-24T17:19:41.214Z,17.33
2019-01-24T17:22:09.765Z,16.53
2019-01-24T17:24:38.304Z,16.50
2019-01-24T17:27:06.855Z,17.33
2019-01-24T17:29:35.372Z,17.00
2019-01-24T17:32:04.249Z,16.20
2019-01-24T17:34:32.827Z,17.27
2019-01-24T17:37:01.369Z,17.77
2019-01-24T17:39:29.922Z,17.87
2019-01-24T17:41:58.500Z,18.63
2019-01-24T17:44:27.038Z,17.23
2019-01-24T17:46:55.576Z,16.53
2019-01-24T17:49:24.200Z,16.93
2019-01-24T17:51:52.746Z,17.80
2019-01-24T17:54:21.275Z,17.63
2019-01-24T17:56:49.837Z,16.87
2019-01-24T17:59:18.356Z,16.60
2019-01-24T18:01:46.997Z,17.17
2019-01-24T18:04:21.660Z,16.30
2019-01-24T18:06:45.772Z,16.00
2019-01-24T18:09:14.337Z,16.47
2019-01-24T18:11:42.891Z,15.97
2019-01-24T18:14:11.467Z,16.93
2019-01-24T18:16:40.348Z,15.80
2019-01-24T18:19:08.877Z,16.17
2019-01-24T18:21:37.509Z,15.57
2019-01-24T18:24:06.501Z,16.67
2019-01-24T18:26:35.081Z,15.50
2019-01-24T18:29:03.733Z,16.83
2019-01-24T18:31:32.313Z,16.40
2019-01-24T18:34:01.185Z,15.70
2019-01-24T18:36:29.721Z,16.93
2019-01-24T18:38:58.300Z,16.27
2019-01-24T18:41:26.846Z,16.63
2019-01-24T18:43:55.446Z,15.30
2019-01-24T18:46:24.229Z,16.00
2019-01-24T18:48:52.769Z,15.97
2019-01-24T18:51:21.308Z,16.17
2019-01-24T18:53:50.068Z,15.07
2019-01-24T18:56:18.606Z,15.73
2019-01-24T18:58:47.150Z,15.00
2019-01-24T19:01:15.732Z,16.63
2019-01-24T19:03:44.256Z,16.90
2019-01-24T19:06:12.794Z,15.80
2019-01-24T19:08:45.820Z,15.40
2019-01-24T19:11:11.677Z,15.73
2019-01-24T19:13:40.205Z,17.03
2019-01-24T19:16:08.804Z,17.63
2019-01-24T19:18:37.417Z,16.73
2019-01-24T19:21:06.220Z,15.33
2019-01-24T19:23:34.752Z,16.10
2019-01-24T19:26:03.356Z,16.03
2019-01-24T19:28:31.901Z,15.07
2019-01-24T19:31:00.495Z,16.07
2019-01-24T19:33:29.095Z,15.20
2019-01-24T19:36:00.463Z,14.43
2019-01-24T19:38:27.961Z,15.43
2019-01-24T19:40:56.497Z,16.43
2019-01-24T19:43:25.046Z,15.00
2019-01-24T19:45:53.573Z,15.93
2019-01-24T19:48:22.139Z,14.53
2019-01-24T19:50:50.728Z,17.60
2019-01-24T19:53:19.266Z,14.90
2019-01-24T19:55:47.870Z,15.97
2019-01-24T19:58:16.485Z,15.37
2019-01-24T20:00:45.004Z,14.77
2019-01-24T20:03:13.562Z,14.40
2019-01-24T20:05:42.088Z,14.50
2019-01-24T20:08:10.746Z,15.13
2019-01-24T20:10:39.481Z,15.00
2019-01-24T20:13:09.730Z,14.43
2019-01-24T20:15:38.333Z,14.67
2019-01-24T20:18:07.057Z,14.83
2019-01-24T20:20:37.590Z,15.27
2019-01-24T20:23:06.833Z,14.30
2019-01-24T20:25:35.385Z,14.53
2019-01-24T20:28:03.930Z,13.80
2019-01-24T20:30:32.784Z,13.40
2019-01-24T20:33:01.617Z,15.03
2019-01-24T20:35:49.292Z,14.53
2019-01-24T20:38:17.841Z,12.40
2019-01-24T20:40:47.277Z,14.67
2019-01-24T20:43:16.120Z,14.47
2019-01-24T20:45:44.676Z,13.50
2019-01-24T20:48:13.241Z,13.57
2019-01-24T20:50:42.165Z,13.70
2019-01-24T20:53:10.712Z,14.47
2019-01-24T20:55:39.257Z,14.97
2019-01-24T20:58:07.881Z,14.80
2019-01-24T21:00:36.557Z,14.00
2019-01-24T21:03:05.720Z,13.93
2019-01-24T21:05:34.273Z,13.17
2019-01-24T21:08:03.044Z,14.80
2019-01-24T21:10:31.653Z,13.97
2019-01-24T21:13:00.299Z,13.53
2019-01-24T21:15:28.873Z,12.87
2019-01-24T21:17:57.410Z,13.93
2019-01-24T21:20:26.378Z,13.00
2019-01-24T21:22:55.153Z,12.33
2019-01-24T21:25:23.788Z,13.87
2019-01-24T21:27:52.508Z,13.20
2019-01-24T21:30:31.286Z,14.23
2019-01-24T21:32:59.938Z,14.07
2019-01-24T21:35:28.474Z,13.17
2019-01-24T21:37:57.069Z,14.70
2019-01-24T21:40:25.832Z,14.57
2019-01-24T21:42:54.359Z,14.07
2019-01-24T21:45:24.204Z,14.57
2019-01-24T21:47:52.773Z,14.27
2019-01-24T21:50:22.065Z,15.10
2019-01-24T21:52:50.634Z,14.47
2019-01-24T21:55:19.565Z,15.83
2019-01-24T21:57:48.502Z,13.63
2019-01-24T22:00:18.169Z,14.97
2019-01-24T22:02:46.725Z,14.50
2019-01-24T22:05:15.648Z,14.27
2019-01-24T22:07:44.173Z,14.47
2019-01-24T22:10:14.024Z,13.17
2019-01-24T22:12:42.569Z,14.23
2019-01-24T22:15:12.780Z,14.73
2019-01-24T22:17:41.536Z,15.40
2019-01-24T22:20:11.104Z,14.83
2019-01-24T22:22:39.838Z,13.60
2019-01-24T22:25:10.027Z,14.13
2019-01-24T22:27:38.592Z,15.70
2019-01-24T22:30:08.404Z,15.13
2019-01-24T22:32:37.393Z,14.40
2019-01-24T22:35:06.032Z,14.27
2019-01-24T22:37:34.574Z,14.00
2019-01-24T22:40:03.164Z,15.27
2019-01-24T22:42:31.736Z,14.37
2019-01-24T22:45:00.452Z,13.97
2019-01-24T22:47:29.056Z,13.63
2019-01-24T22:49:57.520Z,13.77
2019-01-24T22:52:26.080Z,14.77
2019-01-24T22:54:54.820Z,14.40
2019-01-24T22:57:23.364Z,15.43
2019-01-24T22:59:51.913Z,15.27
2019-01-24T23:02:24.799Z,15.27
2019-01-24T23:04:53.433Z,15.07
2019-01-24T23:07:22.004Z,15.80
2019-01-24T23:09:50.572Z,15.73
2019-01-24T23:12:19.120Z,15.63
2019-01-24T23:14:47.665Z,15.87
2019-01-24T23:17:16.337Z,15.50
2019-01-24T23:19:45.104Z,15.37
2019-01-24T23:22:13.661Z,15.43
2019-01-24T23:24:42.216Z,14.10
2019-01-24T23:27:10.889Z,15.10
2019-01-24T23:29:39.419Z,14.27
2019-01-24T23:32:07.948Z,15.17
2019-01-24T23:34:36.553Z,14.13
2019-01-24T23:37:05.133Z,15.23
2019-01-24T23:39:33.692Z,14.83
2019-01-24T23:42:02.304Z,14.27
2019-01-24T23:44:30.856Z,13.57
2019-01-24T23:46:59.440Z,13.50
2019-01-24T23:49:27.985Z,14.33
2019-01-24T23:51:56.807Z,15.30
2019-01-24T23:54:25.377Z,13.60
2019-01-24T23:56:53.905Z,14.80
2019-01-24T23:59:22.428Z,14.37
